Time,TemperatureF,DewpointF,PressureIn,WindDirection,WindDirectionDegrees,WindSpeedMPH,WindSpeedGustMPH,Humidity,HourlyPrecipIn,Conditions,Clouds,dailyrainin,SoftwareType,DateUTC
2013-05-16 00:04:00,56.8,47.5,29.76,NW,315,3.8,3.8,71,0.00,,---,0.00,VWS V14.00,2013-05-16 07:04:00,
2013-05-16 00:10:00,56.8,47.5,29.76,NW,315,4.3,4.3,71,0.00,,---,0.00,VWS V14.00,2013-05-16 07:10:00,
2013-05-16 00:15:00,56.7,47.4,29.76,WNW,292,2.0,2.0,71,0.00,,---,0.00,VWS V14.00,2013-05-16 07:15:00,
2013-05-16 00:20:00,56.7,47.8,29.76,NNW,338,1.1,1.1,72,0.00,,---,0.00,VWS V14.00,2013-05-16 07:20:00,
2013-05-16 00:25:00,56.8,47.9,29.76,NNW,338,1.3,1.6,72,0.00,,---,0.00,VWS V14.00,2013-05-16 07:25:00,
2013-05-16 00:30:00,56.8,47.9,29.76,NW,315,0.0,0.0,72,0.00,,---,0.00,VWS V14.00,2013-05-16 07:30:00,
2013-05-16 00:36:00,56.7,47.8,29.76,WNW,292,2.7,2.7,72,0.00,,---,0.00,VWS V14.00,2013-05-16 07:36:00,
2013-05-16 00:42:00,56.7,48.1,29.76,NW,315,0.0,0.0,73,0.00,,---,0.00,VWS V14.00,2013-05-16 07:42:00,
2013-05-16 00:47:00,56.7,47.8,29.76,East,90,0.0,0.0,72,0.00,,---,0.00,VWS V14.00,2013-05-16 07:47:00,
2013-05-16 00:53:00,56.7,47.8,29.76,SSW,202,0.0,0.0,72,0.00,,---,0.00,VWS V14.00,2013-05-16 07:53:00,
2013-05-16 00:58:00,56.5,47.9,29.76,SSW,202,0.0,0.0,73,0.00,,---,0.00,VWS V14.00,2013-05-16 07:58:00,
2013-05-16 01:03:00,56.3,47.8,29.76,SSW,202,0.0,0.0,73,0.00,,---,0.00,VWS V14.00,2013-05-16 08:03:00,
2013-05-16 01:09:00,56.3,47.8,29.76,NW,315,2.7,3.8,73,0.00,,---,0.00,VWS V14.00,2013-05-16 08:09:00,
2013-05-16 01:14:00,56.5,47.9,29.76,WNW,292,4.9,4.9,73,0.00,,---,0.00,VWS V14.00,2013-05-16 08:14:00,
2013-05-16 01:19:00,56.5,48.3,29.74,NW,315,1.3,1.6,74,0.00,,---,0.00,VWS V14.00,2013-05-16 08:19:00,
2013-05-16 01:24:00,56.7,48.5,29.74,West,270,1.3,2.2,74,0.00,,---,0.00,VWS V14.00,2013-05-16 08:24:00,
2013-05-16 01:30:00,56.7,48.5,29.74,NW,315,0.0,0.0,74,0.00,,---,0.00,VWS V14.00,2013-05-16 08:30:00,
2013-05-16 01:35:00,56.7,48.5,29.74,WSW,248,0.0,0.0,74,0.00,,---,0.00,VWS V14.00,2013-05-16 08:35:00,
2013-05-16 01:40:00,56.7,48.5,29.74,North,0,1.1,1.6,74,0.00,,---,0.00,VWS V14.00,2013-05-16 08:40:00,
2013-05-16 01:45:00,56.8,48.7,29.74,East,90,0.0,0.0,74,0.00,,---,0.00,VWS V14.00,2013-05-16 08:45:00,
2013-05-16 01:51:00,57.0,48.8,29.74,ESE,112,0.0,0.0,74,0.00,,---,0.00,VWS V14.00,2013-05-16 08:51:00,
2013-05-16 01:56:00,57.0,48.8,29.74,ESE,112,1.6,1.6,74,0.00,,---,0.00,VWS V14.00,2013-05-16 08:56:00,
2013-05-16 02:02:00,57.0,48.8,29.74,SSE,158,1.3,2.0,74,0.00,,---,0.00,VWS V14.00,2013-05-16 09:02:00,
2013-05-16 02:08:00,57.0,48.8,29.74,SSE,158,1.6,1.6,74,0.00,,---,0.00,VWS V14.00,2013-05-16 09:08:00,
2013-05-16 02:13:00,57.0,48.8,29.74,NE,45,0.9,2.0,74,0.00,,---,0.00,VWS V14.00,2013-05-16 09:13:00,
2013-05-16 02:19:00,57.0,48.8,29.74,SSE,158,0.0,0.0,74,0.00,,---,0.00,VWS V14.00,2013-05-16 09:19:00,
2013-05-16 02:25:00,57.0,48.5,29.74,SSE,158,1.6,1.6,73,0.00,,---,0.00,VWS V14.00,2013-05-16 09:25:00,
2013-05-16 02:31:00,57.0,48.8,29.74,SSW,202,2.7,2.7,74,0.00,,---,0.00,VWS V14.00,2013-05-16 09:31:00,
2013-05-16 02:36:00,57.2,49.0,29.74,NW,315,1.1,2.5,74,0.00,,---,0.00,VWS V14.00,2013-05-16 09:36:00,
2013-05-16 02:41:00,57.4,49.2,29.74,SSE,158,2.7,2.7,74,0.00,,---,0.00,VWS V14.00,2013-05-16 09:41:00,
2013-05-16 02:46:00,57.4,49.2,29.74,NNE,22,1.1,1.3,74,0.00,,---,0.00,VWS V14.00,2013-05-16 09:46:00,
2013-05-16 02:52:00,57.6,49.3,29.74,WNW,292,0.0,0.0,74,0.00,,---,0.00,VWS V14.00,2013-05-16 09:52:00,
2013-05-16 02:57:00,57.6,49.3,29.74,WSW,248,2.0,2.0,74,0.00,,---,0.00,VWS V14.00,2013-05-16 09:57:00,
2013-05-16 03:02:00,57.6,49.0,29.74,WNW,292,5.4,5.4,73,0.00,,---,0.00,VWS V14.00,2013-05-16 10:02:00,
2013-05-16 03:07:00,57.6,49.0,29.74,NW,315,6.0,6.0,73,0.00,,---,0.00,VWS V14.00,2013-05-16 10:07:00,
2013-05-16 03:12:00,57.6,49.0,29.74,WNW,292,3.6,3.6,73,0.00,,---,0.00,VWS V14.00,2013-05-16 10:12:00,
2013-05-16 03:18:00,57.6,49.3,29.74,WNW,292,3.4,3.4,74,0.00,,---,0.00,VWS V14.00,2013-05-16 10:18:00,
2013-05-16 03:23:00,57.6,49.3,29.71,WNW,292,5.6,5.6,74,0.00,,---,0.00,VWS V14.00,2013-05-16 10:23:00,
2013-05-16 03:29:00,57.7,49.5,29.71,NE,45,0.0,0.9,74,0.00,,---,0.00,VWS V14.00,2013-05-16 10:29:00,
2013-05-16 03:34:00,57.7,49.5,29.71,East,90,1.1,3.1,74,0.00,,---,0.00,VWS V14.00,2013-05-16 10:34:00,
2013-05-16 03:39:00,57.7,49.5,29.71,SSW,202,2.0,3.4,74,0.00,,---,0.00,VWS V14.00,2013-05-16 10:39:00,
2013-05-16 03:44:00,57.7,49.5,29.71,North,0,0.0,0.0,74,0.00,,---,0.00,VWS V14.00,2013-05-16 10:44:00,
2013-05-16 03:50:00,57.9,49.7,29.74,NW,315,0.0,0.0,74,0.00,,---,0.00,VWS V14.00,2013-05-16 10:50:00,
2013-05-16 03:55:00,57.9,49.7,29.74,East,90,1.1,1.1,74,0.00,,---,0.00,VWS V14.00,2013-05-16 10:55:00,
2013-05-16 04:00:00,57.9,49.7,29.74,NW,315,3.6,5.8,74,0.00,,---,0.00,VWS V14.00,2013-05-16 11:00:00,
2013-05-16 04:06:00,57.9,49.7,29.71,WSW,248,2.5,2.5,74,0.00,,---,0.00,VWS V14.00,2013-05-16 11:06:00,
2013-05-16 04:11:00,57.7,49.5,29.71,NW,315,3.1,4.9,74,0.00,,---,0.00,VWS V14.00,2013-05-16 11:11:00,
2013-05-16 04:16:00,57.7,49.5,29.71,NNW,338,4.3,4.3,74,0.00,,---,0.00,VWS V14.00,2013-05-16 11:16:00,
2013-05-16 04:22:00,57.7,49.5,29.71,West,270,3.4,3.8,74,0.00,,---,0.00,VWS V14.00,2013-05-16 11:22:00,
2013-05-16 04:27:00,57.6,49.3,29.71,WNW,292,7.2,7.2,74,0.00,,---,0.00,VWS V14.00,2013-05-16 11:27:00,
2013-05-16 04:33:00,57.7,49.9,29.71,WSW,248,0.9,2.7,75,0.00,,---,0.00,VWS V14.00,2013-05-16 11:33:00,
2013-05-16 04:39:00,57.6,49.7,29.71,NW,315,5.4,8.7,75,0.00,,---,0.00,VWS V14.00,2013-05-16 11:39:00,
2013-05-16 04:44:00,57.7,49.9,29.71,WNW,292,1.3,2.9,75,0.00,,---,0.00,VWS V14.00,2013-05-16 11:44:00,
2013-05-16 04:50:00,57.7,49.9,29.71,NW,315,3.8,8.5,75,0.00,,---,0.00,VWS V14.00,2013-05-16 11:50:00,
2013-05-16 04:55:00,57.6,49.7,29.71,WNW,292,6.0,6.5,75,0.00,,---,0.00,VWS V14.00,2013-05-16 11:55:00,
2013-05-16 05:00:00,57.6,49.7,29.71,NW,315,2.9,8.7,75,0.00,,---,0.00,VWS V14.00,2013-05-16 12:00:00,
2013-05-16 05:05:00,57.6,49.7,29.71,NNW,338,4.7,15.4,75,0.00,,---,0.00,VWS V14.00,2013-05-16 12:05:00,
2013-05-16 05:10:00,57.6,49.7,29.71,SSE,158,6.3,8.5,75,0.00,,---,0.00,VWS V14.00,2013-05-16 12:10:00,
2013-05-16 05:15:00,57.6,49.7,29.71,West,270,2.0,6.0,75,0.00,,---,0.00,VWS V14.00,2013-05-16 12:15:00,
2013-05-16 05:21:00,57.6,49.7,29.71,WNW,292,2.5,2.5,75,0.00,,---,0.00,VWS V14.00,2013-05-16 12:21:00,
2013-05-16 05:27:00,57.7,50.2,29.71,NW,315,2.5,2.5,76,0.00,,---,0.00,VWS V14.00,2013-05-16 12:27:00,
2013-05-16 05:32:00,57.7,50.2,29.71,NE,45,3.4,3.4,76,0.00,,---,0.00,VWS V14.00,2013-05-16 12:32:00,
2013-05-16 05:37:00,57.7,49.9,29.71,NE,45,2.7,2.7,75,0.00,,---,0.00,VWS V14.00,2013-05-16 12:37:00,
2013-05-16 05:42:00,57.9,50.4,29.71,SSE,158,1.6,2.9,76,0.00,,---,0.00,VWS V14.00,2013-05-16 12:42:00,
2013-05-16 05:47:00,57.9,50.0,29.71,NE,45,0.0,0.0,75,0.00,,---,0.00,VWS V14.00,2013-05-16 12:47:00,
2013-05-16 05:53:00,57.9,50.0,29.71,NNE,22,0.0,1.6,75,0.00,,---,0.00,VWS V14.00,2013-05-16 12:53:00,
2013-05-16 05:59:00,57.9,50.0,29.71,East,90,0.9,2.9,75,0.00,,---,0.00,VWS V14.00,2013-05-16 12:59:00,
2013-05-16 06:04:00,57.9,50.4,29.71,ESE,112,2.9,2.9,76,0.00,,---,0.00,VWS V14.00,2013-05-16 13:04:00,
2013-05-16 06:10:00,57.9,50.0,29.71,WSW,248,0.0,0.0,75,0.00,,---,0.00,VWS V14.00,2013-05-16 13:10:00,
2013-05-16 06:15:00,58.1,50.2,29.71,North,0,2.5,2.5,75,0.00,,---,0.00,VWS V14.00,2013-05-16 13:15:00,
2013-05-16 06:20:00,58.1,50.2,29.71,NW,315,2.7,4.0,75,0.00,,---,0.00,VWS V14.00,2013-05-16 13:20:00,
2013-05-16 06:26:00,58.1,50.2,29.71,North,0,0.0,2.5,75,0.00,,---,0.00,VWS V14.00,2013-05-16 13:26:00,
2013-05-16 06:32:00,58.1,50.2,29.71,NNE,22,1.6,1.6,75,0.00,,---,0.00,VWS V14.00,2013-05-16 13:32:00,
2013-05-16 06:38:00,58.1,50.6,29.71,West,270,1.6,3.1,76,0.00,,---,0.00,VWS V14.00,2013-05-16 13:38:00,
2013-05-16 06:43:00,58.1,50.6,29.71,WNW,292,0.9,2.7,76,0.00,,---,0.00,VWS V14.00,2013-05-16 13:43:00,
2013-05-16 06:48:00,58.1,50.6,29.71,East,90,2.5,2.5,76,0.00,,---,0.00,VWS V14.00,2013-05-16 13:48:00,
2013-05-16 06:53:00,58.1,50.6,29.74,NW,315,1.3,1.3,76,0.00,,---,0.00,VWS V14.00,2013-05-16 13:53:00,
2013-05-16 06:59:00,58.3,50.8,29.74,NW,315,0.0,0.0,76,0.00,,---,0.00,VWS V14.00,2013-05-16 13:59:00,
2013-05-16 07:04:00,58.3,50.8,29.74,SW,225,2.0,2.0,76,0.00,,---,0.00,VWS V14.00,2013-05-16 14:04:00,
2013-05-16 07:10:00,58.1,50.6,29.74,WNW,292,8.1,8.1,76,0.00,,---,0.00,VWS V14.00,2013-05-16 14:10:00,
2013-05-16 07:16:00,58.1,50.6,29.74,NNW,338,3.8,5.8,76,0.00,,---,0.00,VWS V14.00,2013-05-16 14:16:00,
2013-05-16 07:21:00,58.1,50.6,29.74,WNW,292,2.5,3.8,76,0.00,,---,0.00,VWS V14.00,2013-05-16 14:21:00,
2013-05-16 07:27:00,58.3,51.1,29.74,NW,315,2.2,2.7,77,0.00,,---,0.00,VWS V14.00,2013-05-16 14:27:00,
2013-05-16 07:32:00,58.5,51.3,29.74,North,0,1.3,2.7,77,0.00,,---,0.00,VWS V14.00,2013-05-16 14:32:00,
2013-05-16 07:37:00,58.5,51.3,29.74,North,0,0.0,1.6,77,0.00,,---,0.00,VWS V14.00,2013-05-16 14:37:00,
2013-05-16 07:42:00,58.5,51.6,29.74,NNW,338,2.2,4.0,78,0.00,,---,0.00,VWS V14.00,2013-05-16 14:42:00,
2013-05-16 07:47:00,58.5,51.6,29.74,WNW,292,1.3,2.7,78,0.00,,---,0.00,VWS V14.00,2013-05-16 14:47:00,
2013-05-16 07:53:00,58.6,51.8,29.76,WSW,248,2.0,2.0,78,0.00,,---,0.00,VWS V14.00,2013-05-16 14:53:00,
2013-05-16 07:58:00,58.6,51.8,29.76,WNW,292,2.0,2.5,78,0.00,,---,0.00,VWS V14.00,2013-05-16 14:58:00,
2013-05-16 08:03:00,58.6,51.8,29.76,NW,315,2.9,3.1,78,0.00,,---,0.00,VWS V14.00,2013-05-16 15:03:00,
2013-05-16 08:09:00,58.8,52.0,29.76,West,270,3.8,5.4,78,0.00,,---,0.00,VWS V14.00,2013-05-16 15:09:00,
2013-05-16 08:14:00,58.8,52.3,29.76,NW,315,2.2,2.2,79,0.00,,---,0.00,VWS V14.00,2013-05-16 15:14:00,
2013-05-16 08:20:00,58.8,52.3,29.74,NNW,338,0.0,0.0,79,0.00,,---,0.00,VWS V14.00,2013-05-16 15:20:00,
2013-05-16 08:25:00,59.0,52.5,29.74,NNW,338,0.0,0.0,79,0.00,,---,0.00,VWS V14.00,2013-05-16 15:25:00,
2013-05-16 08:30:00,59.2,53.0,29.74,NNW,338,0.0,1.1,80,0.00,,---,0.00,VWS V14.00,2013-05-16 15:30:00,
2013-05-16 08:36:00,59.2,53.0,29.74,WNW,292,2.0,2.2,80,0.00,,---,0.00,VWS V14.00,2013-05-16 15:36:00,
2013-05-16 08:41:00,59.4,53.2,29.74,NNW,338,4.7,4.7,80,0.00,,---,0.00,VWS V14.00,2013-05-16 15:41:00,
2013-05-16 08:46:00,59.4,53.2,29.74,NW,315,1.3,1.3,80,0.00,,---,0.00,VWS V14.00,2013-05-16 15:46:00,
2013-05-16 08:51:00,59.5,53.4,29.74,West,270,2.2,3.6,80,0.00,,---,0.00,VWS V14.00,2013-05-16 15:51:00,
2013-05-16 08:56:00,59.9,54.1,29.74,NW,315,3.6,3.8,81,0.00,,---,0.00,VWS V14.00,2013-05-16 15:56:00,
2013-05-16 09:01:00,59.9,54.1,29.74,WNW,292,2.9,4.3,81,0.00,,---,0.00,VWS V14.00,2013-05-16 16:01:00,
2013-05-16 09:07:00,59.9,54.1,29.74,NW,315,4.7,4.9,81,0.00,,---,0.00,VWS V14.00,2013-05-16 16:07:00,
2013-05-16 09:12:00,59.9,54.1,29.74,WNW,292,5.4,5.4,81,0.00,,---,0.00,VWS V14.00,2013-05-16 16:12:00,
2013-05-16 09:17:00,60.4,54.6,29.74,NW,315,5.6,5.6,81,0.00,,---,0.00,VWS V14.00,2013-05-16 16:17:00,
2013-05-16 09:22:00,60.4,54.2,29.74,NW,315,4.7,6.0,80,0.00,,---,0.00,VWS V14.00,2013-05-16 16:22:00,
2013-05-16 09:27:00,60.8,54.6,29.74,NW,315,2.9,4.5,80,0.00,,---,0.00,VWS V14.00,2013-05-16 16:27:00,
2013-05-16 09:32:00,61.2,55.0,29.74,WNW,292,3.1,4.3,80,0.00,,---,0.00,VWS V14.00,2013-05-16 16:32:00,
2013-05-16 09:37:00,61.3,55.1,29.74,WNW,292,4.7,5.8,80,0.00,,---,0.00,VWS V14.00,2013-05-16 16:37:00,
2013-05-16 09:42:00,61.3,55.1,29.74,North,0,2.9,2.9,80,0.00,,---,0.00,VWS V14.00,2013-05-16 16:42:00,
2013-05-16 09:48:00,62.2,55.7,29.74,NW,315,2.5,2.5,79,0.00,,---,0.00,VWS V14.00,2013-05-16 16:48:00,
2013-05-16 09:54:00,62.6,55.7,29.74,WNW,292,2.2,3.1,78,0.00,,---,0.00,VWS V14.00,2013-05-16 16:54:00,
2013-05-16 09:59:00,62.6,55.7,29.74,WNW,292,1.6,3.1,78,0.00,,---,0.00,VWS V14.00,2013-05-16 16:59:00,
2013-05-16 10:05:00,63.5,56.2,29.74,WNW,292,3.8,3.8,77,0.00,,---,0.00,VWS V14.00,2013-05-16 17:05:00,
2013-05-16 10:10:00,63.9,55.8,29.74,South,180,2.7,3.1,75,0.00,,---,0.00,VWS V14.00,2013-05-16 17:10:00,
2013-05-16 10:16:00,63.9,55.4,29.74,SSW,202,3.1,4.9,74,0.00,,---,0.00,VWS V14.00,2013-05-16 17:16:00,
2013-05-16 10:21:00,63.9,55.4,29.74,WNW,292,2.9,2.9,74,0.00,,---,0.00,VWS V14.00,2013-05-16 17:21:00,
2013-05-16 10:27:00,64.2,55.8,29.74,WSW,248,2.5,2.9,74,0.00,,---,0.00,VWS V14.00,2013-05-16 17:27:00,
2013-05-16 10:33:00,64.4,55.6,29.74,NNW,338,5.4,5.4,73,0.00,,---,0.00,VWS V14.00,2013-05-16 17:33:00,
2013-05-16 10:38:00,64.4,55.6,29.76,WNW,292,3.4,3.4,73,0.00,,---,0.00,VWS V14.00,2013-05-16 17:38:00,
2013-05-16 10:43:00,64.4,55.2,29.76,NNW,338,5.6,5.6,72,0.00,,---,0.00,VWS V14.00,2013-05-16 17:43:00,
2013-05-16 10:48:00,64.4,55.2,29.76,North,0,3.6,3.6,72,0.00,,---,0.00,VWS V14.00,2013-05-16 17:48:00,
2013-05-16 10:54:00,64.6,55.4,29.74,NW,315,4.7,5.6,72,0.00,,---,0.00,VWS V14.00,2013-05-16 17:54:00,
2013-05-16 10:59:00,65.3,56.0,29.74,WNW,292,2.9,6.3,72,0.00,,---,0.00,VWS V14.00,2013-05-16 17:59:00,
2013-05-16 11:04:00,65.7,56.4,29.74,NW,315,3.4,3.6,72,0.00,,---,0.00,VWS V14.00,2013-05-16 18:04:00,
2013-05-16 11:09:00,65.7,56.0,29.74,NW,315,7.6,7.6,71,0.00,,---,0.00,VWS V14.00,2013-05-16 18:09:00,
2013-05-16 11:15:00,65.7,55.6,29.74,NW,315,4.0,4.0,70,0.00,,---,0.00,VWS V14.00,2013-05-16 18:15:00,
2013-05-16 11:21:00,66.0,56.4,29.74,NW,315,6.5,6.5,71,0.00,,---,0.00,VWS V14.00,2013-05-16 18:21:00,
2013-05-16 11:26:00,66.2,56.1,29.74,West,270,8.5,8.5,70,0.00,,---,0.00,VWS V14.00,2013-05-16 18:26:00,
2013-05-16 11:32:00,66.4,55.9,29.74,WNW,292,3.6,3.6,69,0.00,,---,0.00,VWS V14.00,2013-05-16 18:32:00,
2013-05-16 11:37:00,66.9,56.4,29.74,NW,315,8.1,10.1,69,0.00,,---,0.00,VWS V14.00,2013-05-16 18:37:00,
2013-05-16 11:42:00,67.1,56.2,29.74,WNW,292,4.0,12.3,68,0.00,,---,0.00,VWS V14.00,2013-05-16 18:42:00,
2013-05-16 11:47:00,67.5,56.5,29.74,West,270,6.3,10.7,68,0.00,,---,0.00,VWS V14.00,2013-05-16 18:47:00,
2013-05-16 11:53:00,67.3,55.5,29.76,NE,45,8.5,8.5,66,0.00,,---,0.00,VWS V14.00,2013-05-16 18:53:00,
2013-05-16 11:58:00,67.3,55.5,29.76,NNW,338,11.0,12.1,66,0.00,,---,0.00,VWS V14.00,2013-05-16 18:58:00,
2013-05-16 12:03:00,67.8,56.5,29.76,North,0,6.7,12.3,67,0.00,,---,0.00,VWS V14.00,2013-05-16 19:03:00,
2013-05-16 12:08:00,68.4,56.6,29.76,NW,315,5.8,8.7,66,0.00,,---,0.00,VWS V14.00,2013-05-16 19:08:00,
2013-05-16 12:13:00,68.7,56.5,29.76,NW,315,4.9,9.0,65,0.00,,---,0.00,VWS V14.00,2013-05-16 19:13:00,
2013-05-16 12:19:00,68.9,56.7,29.76,WNW,292,8.1,10.1,65,0.00,,---,0.00,VWS V14.00,2013-05-16 19:19:00,
2013-05-16 12:24:00,69.1,56.4,29.76,WNW,292,14.1,14.1,64,0.00,,---,0.00,VWS V14.00,2013-05-16 19:24:00,
2013-05-16 12:29:00,68.9,55.8,29.76,WNW,292,5.4,8.1,63,0.00,,---,0.00,VWS V14.00,2013-05-16 19:29:00,
2013-05-16 12:34:00,68.7,55.6,29.76,NW,315,4.3,4.3,63,0.00,,---,0.00,VWS V14.00,2013-05-16 19:34:00,
2013-05-16 12:40:00,69.6,56.9,29.76,WSW,248,3.4,10.5,64,0.00,,---,0.00,VWS V14.00,2013-05-16 19:40:00,
2013-05-16 12:45:00,69.8,56.7,29.76,NNW,338,8.7,8.7,63,0.00,,---,0.00,VWS V14.00,2013-05-16 19:45:00,
2013-05-16 12:50:00,70.3,56.7,29.76,WNW,292,4.7,4.7,62,0.00,,---,0.00,VWS V14.00,2013-05-16 19:50:00,
2013-05-16 12:56:00,70.7,57.1,29.76,NW,315,5.8,5.8,62,0.00,,---,0.00,VWS V14.00,2013-05-16 19:56:00,
2013-05-16 13:02:00,71.2,57.1,29.76,NW,315,6.5,8.5,61,0.00,,---,0.00,VWS V14.00,2013-05-16 20:02:00,
2013-05-16 13:07:00,71.6,57.0,29.74,NNW,338,6.3,6.3,60,0.00,,---,0.00,VWS V14.00,2013-05-16 20:07:00,
2013-05-16 13:13:00,71.6,57.0,29.74,WNW,292,5.8,10.1,60,0.00,,---,0.00,VWS V14.00,2013-05-16 20:13:00,
2013-05-16 13:18:00,72.3,56.2,29.74,WNW,292,4.7,6.9,57,0.00,,---,0.00,VWS V14.00,2013-05-16 20:18:00,
2013-05-16 13:23:00,72.3,56.2,29.74,NNW,338,5.8,5.8,57,0.00,,---,0.00,VWS V14.00,2013-05-16 20:23:00,
2013-05-16 13:29:00,72.7,55.6,29.74,West,270,5.8,5.8,55,0.00,,---,0.00,VWS V14.00,2013-05-16 20:29:00,
2013-05-16 13:34:00,72.7,55.6,29.74,NW,315,4.0,6.0,55,0.00,,---,0.00,VWS V14.00,2013-05-16 20:34:00,
2013-05-16 13:39:00,73.0,54.9,29.74,WNW,292,4.7,4.7,53,0.00,,---,0.00,VWS V14.00,2013-05-16 20:39:00,
2013-05-16 13:44:00,73.0,53.9,29.74,West,270,5.8,6.5,51,0.00,,---,0.00,VWS V14.00,2013-05-16 20:44:00,
2013-05-16 13:50:00,73.0,53.9,29.74,NNW,338,8.7,8.7,51,0.00,,---,0.00,VWS V14.00,2013-05-16 20:50:00,
2013-05-16 13:56:00,72.9,54.2,29.74,NNW,338,6.5,6.5,52,0.00,,---,0.00,VWS V14.00,2013-05-16 20:56:00,
2013-05-16 14:02:00,73.6,54.4,29.74,North,0,5.8,9.6,51,0.00,,---,0.00,VWS V14.00,2013-05-16 21:02:00,
2013-05-16 14:07:00,73.6,53.8,29.74,NW,315,9.8,9.8,50,0.00,,---,0.00,VWS V14.00,2013-05-16 21:07:00,
2013-05-16 14:13:00,73.4,53.7,29.74,North,0,5.8,8.1,50,0.00,,---,0.00,VWS V14.00,2013-05-16 21:13:00,
2013-05-16 14:18:00,73.4,53.1,29.74,WNW,292,5.4,5.4,49,0.00,,---,0.00,VWS V14.00,2013-05-16 21:18:00,
2013-05-16 14:24:00,73.4,53.1,29.74,WNW,292,8.5,8.5,49,0.00,,---,0.00,VWS V14.00,2013-05-16 21:24:00,
2013-05-16 14:30:00,73.8,53.4,29.74,NW,315,6.3,8.5,49,0.00,,---,0.00,VWS V14.00,2013-05-16 21:30:00,
2013-05-16 14:35:00,73.4,52.5,29.74,WNW,292,12.5,12.5,48,0.00,,---,0.00,VWS V14.00,2013-05-16 21:35:00,
2013-05-16 14:40:00,73.2,52.9,29.74,NW,315,6.0,6.0,49,0.00,,---,0.00,VWS V14.00,2013-05-16 21:40:00,
2013-05-16 14:45:00,73.2,52.9,29.74,WNW,292,8.5,8.5,49,0.00,,---,0.00,VWS V14.00,2013-05-16 21:45:00,
2013-05-16 14:50:00,73.4,53.1,29.74,WNW,292,6.0,6.0,49,0.00,,---,0.00,VWS V14.00,2013-05-16 21:50:00,
2013-05-16 14:55:00,73.2,53.5,29.74,NE,45,2.9,2.9,50,0.00,,---,0.00,VWS V14.00,2013-05-16 21:55:00,
2013-05-16 15:02:00,73.0,53.3,29.74,North,0,4.9,4.9,50,0.00,,---,0.00,VWS V14.00,2013-05-16 22:02:00,
2013-05-16 15:07:00,72.7,52.4,29.74,NW,315,8.7,8.7,49,0.00,,---,0.00,VWS V14.00,2013-05-16 22:07:00,
2013-05-16 15:13:00,72.3,52.1,29.74,NNW,338,9.8,9.8,49,0.00,,---,0.00,VWS V14.00,2013-05-16 22:13:00,
2013-05-16 15:18:00,72.3,52.1,29.74,WNW,292,5.8,8.5,49,0.00,,---,0.00,VWS V14.00,2013-05-16 22:18:00,
2013-05-16 15:23:00,72.3,52.1,29.74,WNW,292,9.8,10.5,49,0.00,,---,0.00,VWS V14.00,2013-05-16 22:23:00,
2013-05-16 15:28:00,71.2,51.7,29.74,WNW,292,6.5,6.5,50,0.00,,---,0.00,VWS V14.00,2013-05-16 22:28:00,
2013-05-16 15:33:00,71.1,51.5,29.74,NW,315,12.3,12.3,50,0.00,,---,0.00,VWS V14.00,2013-05-16 22:33:00,
2013-05-16 15:38:00,71.1,51.5,29.74,North,0,12.8,12.8,50,0.00,,---,0.00,VWS V14.00,2013-05-16 22:38:00,
2013-05-16 15:44:00,71.2,51.7,29.74,WNW,292,6.0,6.3,50,0.00,,---,0.00,VWS V14.00,2013-05-16 22:44:00,
2013-05-16 15:49:00,71.2,51.7,29.71,North,0,12.5,12.5,50,0.00,,---,0.00,VWS V14.00,2013-05-16 22:49:00,
2013-05-16 15:54:00,71.2,51.7,29.71,WNW,292,7.4,7.4,50,0.00,,---,0.00,VWS V14.00,2013-05-16 22:54:00,
2013-05-16 16:00:00,71.2,51.7,29.71,NW,315,6.3,6.3,50,0.00,,---,0.00,VWS V14.00,2013-05-16 23:00:00,
2013-05-16 16:05:00,71.2,51.1,29.71,WNW,292,7.4,7.4,49,0.00,,---,0.00,VWS V14.00,2013-05-16 23:05:00,
2013-05-16 16:10:00,71.2,51.7,29.71,NW,315,8.5,8.5,50,0.00,,---,0.00,VWS V14.00,2013-05-16 23:10:00,
2013-05-16 16:15:00,71.2,51.1,29.71,NW,315,6.5,6.5,49,0.00,,---,0.00,VWS V14.00,2013-05-16 23:15:00,
2013-05-16 16:20:00,71.2,51.1,29.71,WNW,292,5.6,5.6,49,0.00,,---,0.00,VWS V14.00,2013-05-16 23:20:00,
2013-05-16 16:26:00,71.1,50.4,29.71,WNW,292,7.6,7.6,48,0.00,,---,0.00,VWS V14.00,2013-05-16 23:26:00,
2013-05-16 16:31:00,70.7,49.5,29.71,WNW,292,7.6,7.6,47,0.00,,---,0.00,VWS V14.00,2013-05-16 23:31:00,
2013-05-16 16:36:00,70.3,48.6,29.71,WNW,292,4.3,7.2,46,0.00,,---,0.00,VWS V14.00,2013-05-16 23:36:00,
2013-05-16 16:42:00,70.2,49.0,29.71,NNW,338,8.5,8.5,47,0.00,,---,0.00,VWS V14.00,2013-05-16 23:42:00,
2013-05-16 16:47:00,69.8,48.1,29.71,NW,315,3.4,3.4,46,0.00,,---,0.00,VWS V14.00,2013-05-16 23:47:00,
2013-05-16 16:52:00,70.0,48.8,29.71,NNE,22,8.5,8.5,47,0.00,,---,0.00,VWS V14.00,2013-05-16 23:52:00,
2013-05-16 16:58:00,69.8,48.7,29.71,NNE,22,4.9,4.9,47,0.00,,---,0.00,VWS V14.00,2013-05-16 23:58:00,
2013-05-16 17:03:00,69.8,48.7,29.71,North,0,4.9,4.9,47,0.00,,---,0.00,VWS V14.00,2013-05-17 00:03:00,
2013-05-16 17:08:00,69.3,48.2,29.71,NW,315,3.1,3.8,47,0.00,,---,0.00,VWS V14.00,2013-05-17 00:08:00,
2013-05-16 17:13:00,69.3,48.2,29.71,NW,315,3.1,3.1,47,0.00,,---,0.00,VWS V14.00,2013-05-17 00:13:00,
2013-05-16 17:19:00,68.4,47.4,29.71,NNW,338,8.1,8.1,47,0.00,,---,0.00,VWS V14.00,2013-05-17 00:19:00,
2013-05-16 17:24:00,68.4,47.4,29.71,NNW,338,6.0,6.0,47,0.00,,---,0.00,VWS V14.00,2013-05-17 00:24:00,
2013-05-16 17:30:00,68.4,47.4,29.71,WSW,248,5.6,6.0,47,0.00,,---,0.00,VWS V14.00,2013-05-17 00:30:00,
2013-05-16 17:36:00,67.3,46.4,29.74,WNW,292,10.1,10.1,47,0.00,,---,0.00,VWS V14.00,2013-05-17 00:36:00,
2013-05-16 17:41:00,67.3,46.4,29.74,SW,225,3.8,3.8,47,0.00,,---,0.00,VWS V14.00,2013-05-17 00:41:00,
2013-05-16 17:46:00,67.3,46.4,29.74,WNW,292,5.4,5.4,47,0.00,,---,0.00,VWS V14.00,2013-05-17 00:46:00,
2013-05-16 17:51:00,67.3,46.4,29.71,West,270,10.3,10.3,47,0.00,,---,0.00,VWS V14.00,2013-05-17 00:51:00,
2013-05-16 17:57:00,65.3,45.7,29.71,WNW,292,8.7,8.7,49,0.00,,---,0.00,VWS V14.00,2013-05-17 00:57:00,
2013-05-16 18:02:00,65.7,46.5,29.71,WNW,292,8.1,8.1,50,0.00,,---,0.00,VWS V14.00,2013-05-17 01:02:00,
2013-05-16 18:08:00,65.8,46.7,29.71,NW,315,5.6,5.6,50,0.00,,---,0.00,VWS V14.00,2013-05-17 01:08:00,
2013-05-16 18:13:00,66.4,48.2,29.71,NNW,338,7.4,7.4,52,0.00,,---,0.00,VWS V14.00,2013-05-17 01:13:00,
2013-05-16 18:19:00,66.2,48.6,29.71,NNW,338,5.4,7.4,53,0.00,,---,0.00,VWS V14.00,2013-05-17 01:19:00,
2013-05-16 18:24:00,66.4,49.2,29.71,NNW,338,8.1,10.5,54,0.00,,---,0.00,VWS V14.00,2013-05-17 01:24:00,
2013-05-16 18:29:00,66.4,49.2,29.71,NW,315,3.1,3.8,54,0.00,,---,0.00,VWS V14.00,2013-05-17 01:29:00,
2013-05-16 18:34:00,66.0,48.9,29.71,NW,315,6.0,6.0,54,0.00,,---,0.00,VWS V14.00,2013-05-17 01:34:00,
2013-05-16 18:39:00,65.3,48.2,29.71,NNW,338,5.8,7.8,54,0.00,,---,0.00,VWS V14.00,2013-05-17 01:39:00,
2013-05-16 18:44:00,65.5,48.9,29.71,NW,315,6.5,6.5,55,0.00,,---,0.00,VWS V14.00,2013-05-17 01:44:00,
2013-05-16 18:50:00,65.3,49.2,29.74,NNW,338,8.5,8.5,56,0.00,,---,0.00,VWS V14.00,2013-05-17 01:50:00,
2013-05-16 18:55:00,65.3,49.2,29.74,NW,315,8.7,8.7,56,0.00,,---,0.00,VWS V14.00,2013-05-17 01:55:00,
2013-05-16 19:01:00,65.3,49.2,29.74,North,0,4.9,6.0,56,0.00,,---,0.00,VWS V14.00,2013-05-17 02:01:00,
2013-05-16 19:06:00,64.0,48.5,29.71,WSW,248,4.0,6.3,57,0.00,,---,0.00,VWS V14.00,2013-05-17 02:06:00,
2013-05-16 19:11:00,63.0,48.0,29.71,NNW,338,7.2,8.5,58,0.00,,---,0.00,VWS V14.00,2013-05-17 02:11:00,
2013-05-16 19:16:00,62.8,47.8,29.71,NNW,338,3.1,7.2,58,0.00,,---,0.00,VWS V14.00,2013-05-17 02:16:00,
2013-05-16 19:21:00,62.6,47.6,29.71,WNW,292,3.8,3.8,58,0.00,,---,0.00,VWS V14.00,2013-05-17 02:21:00,
2013-05-16 19:26:00,61.9,47.9,29.74,WNW,292,2.9,5.4,60,0.00,,---,0.00,VWS V14.00,2013-05-17 02:26:00,
2013-05-16 19:32:00,61.5,47.5,29.74,NW,315,3.6,3.6,60,0.00,,---,0.00,VWS V14.00,2013-05-17 02:32:00,
2013-05-16 19:37:00,61.0,47.5,29.71,NW,315,3.4,3.4,61,0.00,,---,0.00,VWS V14.00,2013-05-17 02:37:00,
2013-05-16 19:42:00,61.0,47.9,29.71,WNW,292,7.8,7.8,62,0.00,,---,0.00,VWS V14.00,2013-05-17 02:42:00,
2013-05-16 19:48:00,61.0,47.9,29.71,WNW,292,5.4,5.4,62,0.00,,---,0.00,VWS V14.00,2013-05-17 02:48:00,
2013-05-16 19:54:00,60.6,48.0,29.71,WNW,292,4.3,4.3,63,0.00,,---,0.00,VWS V14.00,2013-05-17 02:54:00,
2013-05-16 19:59:00,60.4,47.8,29.71,NW,315,4.9,4.9,63,0.00,,---,0.00,VWS V14.00,2013-05-17 02:59:00,
2013-05-16 20:04:00,60.4,47.8,29.71,WNW,292,6.0,7.8,63,0.00,,---,0.00,VWS V14.00,2013-05-17 03:04:00,
2013-05-16 20:10:00,59.7,47.5,29.71,WNW,292,2.5,2.5,64,0.00,,---,0.00,VWS V14.00,2013-05-17 03:10:00,
2013-05-16 20:15:00,59.5,47.4,29.74,SSW,202,1.6,3.4,64,0.00,,---,0.00,VWS V14.00,2013-05-17 03:15:00,
2013-05-16 20:20:00,59.5,47.8,29.74,NW,315,3.4,4.3,65,0.00,,---,0.00,VWS V14.00,2013-05-17 03:20:00,
2013-05-16 20:25:00,59.5,47.8,29.74,NW,315,3.4,6.3,65,0.00,,---,0.00,VWS V14.00,2013-05-17 03:25:00,
2013-05-16 20:30:00,59.4,47.6,29.74,NNW,338,6.0,6.0,65,0.00,,---,0.00,VWS V14.00,2013-05-17 03:30:00,
2013-05-16 20:35:00,59.2,47.4,29.74,North,0,2.5,2.5,65,0.00,,---,0.00,VWS V14.00,2013-05-17 03:35:00,
2013-05-16 20:40:00,59.0,47.7,29.76,WNW,292,2.7,2.7,66,0.00,,---,0.00,VWS V14.00,2013-05-17 03:40:00,
2013-05-16 20:45:00,59.0,47.7,29.76,NW,315,3.1,3.6,66,0.00,,---,0.00,VWS V14.00,2013-05-17 03:45:00,
2013-05-16 20:50:00,58.6,47.3,29.76,WNW,292,1.6,3.8,66,0.00,,---,0.00,VWS V14.00,2013-05-17 03:50:00,
2013-05-16 20:55:00,58.6,47.3,29.76,WNW,292,2.5,3.6,66,0.00,,---,0.00,VWS V14.00,2013-05-17 03:55:00,
2013-05-16 21:00:00,58.5,47.6,29.76,NW,315,4.3,4.9,67,0.00,,---,0.00,VWS V14.00,2013-05-17 04:00:00,
2013-05-16 21:01:00,58.5,47.6,29.76,NW,315,4.0,4.3,67,0.00,,---,0.00,VWS V14.00,2013-05-17 04:01:00,
2013-05-16 21:02:00,58.5,47.6,29.76,NW,315,4.0,4.0,67,0.00,,---,0.00,VWS V14.00,2013-05-17 04:02:00,
2013-05-16 21:03:00,58.5,47.6,29.76,NNW,338,4.0,4.0,67,0.00,,---,0.00,VWS V14.00,2013-05-17 04:03:00,
2013-05-16 21:07:00,58.5,47.6,29.76,WNW,292,2.7,3.1,67,0.00,,---,0.00,VWS V14.00,2013-05-17 04:07:00,
2013-05-16 21:12:00,58.5,47.6,29.76,WNW,292,3.8,3.8,67,0.00,,---,0.00,VWS V14.00,2013-05-17 04:12:00,
2013-05-16 21:17:00,58.1,47.2,29.76,NW,315,5.8,5.8,67,0.00,,---,0.00,VWS V14.00,2013-05-17 04:17:00,
2013-05-16 21:23:00,58.1,47.2,29.76,NW,315,5.4,5.4,67,0.00,,---,0.00,VWS V14.00,2013-05-17 04:23:00,
2013-05-16 21:28:00,58.1,47.6,29.76,West,270,8.5,8.5,68,0.00,,---,0.00,VWS V14.00,2013-05-17 04:28:00,
2013-05-16 21:33:00,57.9,47.4,29.76,NW,315,3.1,3.6,68,0.00,,---,0.00,VWS V14.00,2013-05-17 04:33:00,
2013-05-16 21:38:00,57.9,47.4,29.76,NW,315,7.6,7.6,68,0.00,,---,0.00,VWS V14.00,2013-05-17 04:38:00,
2013-05-16 21:43:00,57.6,47.5,29.76,NW,315,3.1,7.4,69,0.00,,---,0.00,VWS V14.00,2013-05-17 04:43:00,
2013-05-16 21:48:00,57.6,47.5,29.76,NW,315,4.3,5.6,69,0.00,,---,0.00,VWS V14.00,2013-05-17 04:48:00,
2013-05-16 21:53:00,57.6,47.5,29.76,WNW,292,3.6,3.6,69,0.00,,---,0.00,VWS V14.00,2013-05-17 04:53:00,
2013-05-16 21:58:00,57.6,47.5,29.76,WNW,292,5.8,5.8,69,0.00,,---,0.00,VWS V14.00,2013-05-17 04:58:00,
2013-05-16 22:03:00,57.4,47.7,29.76,WNW,292,6.3,6.3,70,0.00,,---,0.00,VWS V14.00,2013-05-17 05:03:00,
2013-05-16 22:08:00,57.2,47.5,29.76,West,270,4.7,4.7,70,0.00,,---,0.00,VWS V14.00,2013-05-17 05:08:00,
2013-05-16 22:13:00,57.4,47.7,29.76,WNW,292,1.3,1.3,70,0.00,,---,0.00,VWS V14.00,2013-05-17 05:13:00,
2013-05-16 22:18:00,57.2,47.5,29.74,NW,315,4.3,4.7,70,0.00,,---,0.00,VWS V14.00,2013-05-17 05:18:00,
2013-05-16 22:24:00,57.2,47.9,29.74,NW,315,4.0,4.0,71,0.00,,---,0.00,VWS V14.00,2013-05-17 05:24:00,
2013-05-16 22:30:00,57.2,47.9,29.74,NNW,338,2.7,2.7,71,0.00,,---,0.00,VWS V14.00,2013-05-17 05:30:00,
2013-05-16 22:36:00,57.2,47.9,29.76,NW,315,2.7,4.0,71,0.00,,---,0.00,VWS V14.00,2013-05-17 05:36:00,
2013-05-16 22:41:00,57.2,47.9,29.76,NW,315,3.8,3.8,71,0.00,,---,0.00,VWS V14.00,2013-05-17 05:41:00,
2013-05-16 22:46:00,57.2,47.9,29.76,NNW,338,2.5,3.8,71,0.00,,---,0.00,VWS V14.00,2013-05-17 05:46:00,
2013-05-16 22:52:00,57.2,47.9,29.76,WNW,292,1.3,3.8,71,0.00,,---,0.00,VWS V14.00,2013-05-17 05:52:00,
2013-05-16 22:58:00,57.2,47.9,29.76,WNW,292,4.0,4.0,71,0.00,,---,0.00,VWS V14.00,2013-05-17 05:58:00,
2013-05-16 23:03:00,57.2,47.9,29.76,SW,225,2.0,3.1,71,0.00,,---,0.00,VWS V14.00,2013-05-17 06:03:00,
2013-05-16 23:08:00,56.8,47.9,29.74,NNW,338,0.9,4.3,72,0.00,,---,0.00,VWS V14.00,2013-05-17 06:08:00,
2013-05-16 23:13:00,56.8,47.9,29.74,NNW,338,2.2,2.5,72,0.00,,---,0.00,VWS V14.00,2013-05-17 06:13:00,
2013-05-16 23:19:00,56.8,47.9,29.74,WNW,292,4.9,4.9,72,0.00,,---,0.00,VWS V14.00,2013-05-17 06:19:00,
2013-05-16 23:25:00,56.8,47.9,29.74,WNW,292,5.4,5.8,72,0.00,,---,0.00,VWS V14.00,2013-05-17 06:25:00,
2013-05-16 23:30:00,56.8,47.9,29.74,NNW,338,2.2,3.8,72,0.00,,---,0.00,VWS V14.00,2013-05-17 06:30:00,
2013-05-16 23:35:00,56.8,47.9,29.74,NW,315,2.0,2.9,72,0.00,,---,0.00,VWS V14.00,2013-05-17 06:35:00,
2013-05-16 23:41:00,56.8,47.9,29.74,WNW,292,3.6,4.3,72,0.00,,---,0.00,VWS V14.00,2013-05-17 06:41:00,